FIN8PY LSZH-EFHK
Flight info
| Callsign | FIN8PY |
|---|---|
| Flight time | 2h 30m |
| Altitude | 37000 |
| Route | DEGES Z1 ETAGO DCT TIKNI/N0440 N746 KENIG DCT MAG DCT PODUS DCT BANUB DCT GOSOT DCT ALAMI DCT OKEVU DCT EVADI Y370 DIVAM |
| Aircraft | A320/M-SDE3FGHIRWY/LB1 |
Departure
| Time | 2026-02-19 10:55 |
|---|---|
| Airport | Zürich Airport (LSZH) |
Arrival
| Time | 2026-02-19 13:26 |
|---|---|
| Airport | Helsinki Vantaa Airport (EFHK) |
| Time | Latitude | Longitude | Altitude | Speed | Heading |
|---|---|---|---|---|---|
| 2026-02-19 10:27 | 47.45418 | 8.55872 | 1434 ft | 0 kts | 186° |
| 2026-02-19 10:48 | 47.45426 | 8.55873 | 1407 ft | 3 kts | 188° |
| 2026-02-19 10:48 | 47.45464 | 8.55882 | 1407 ft | 3 kts | 160° |
| 2026-02-19 10:48 | 47.45478 | 8.55871 | 1412 ft | 3 kts | 144° |
| 2026-02-19 10:49 | 47.45493 | 8.55852 | 1407 ft | 3 kts | 122° |
| 2026-02-19 10:49 | 47.45502 | 8.55826 | 1415 ft | 3 kts | 104° |
| 2026-02-19 10:49 | 47.45505 | 8.55797 | 1413 ft | 3 kts | 95° |
| 2026-02-19 10:49 | 47.45507 | 8.55777 | 1413 ft | 1 kts | 96° |
| 2026-02-19 10:50 | 47.45507 | 8.55776 | 1413 ft | 0 kts | 96° |
| 2026-02-19 10:51 | 47.45507 | 8.55777 | 1413 ft | 1 kts | 96° |
| 2026-02-19 10:51 | 47.45503 | 8.55824 | 1412 ft | 8 kts | 96° |
| 2026-02-19 10:52 | 47.45497 | 8.55921 | 1409 ft | 10 kts | 96° |
| 2026-02-19 10:52 | 47.45478 | 8.56177 | 1407 ft | 15 kts | 96° |
| 2026-02-19 10:52 | 47.45524 | 8.56298 | 1411 ft | 13 kts | 51° |
| 2026-02-19 10:53 | 47.45580 | 8.56400 | 1416 ft | 13 kts | 51° |
| 2026-02-19 10:53 | 47.45590 | 8.56531 | 1419 ft | 14 kts | 94° |
| 2026-02-19 10:53 | 47.45580 | 8.56676 | 1418 ft | 14 kts | 96° |
| 2026-02-19 10:53 | 47.45571 | 8.56818 | 1420 ft | 14 kts | 96° |
| 2026-02-19 10:54 | 47.45564 | 8.56966 | 1421 ft | 12 kts | 78° |
| 2026-02-19 10:54 | 47.45619 | 8.57018 | 1424 ft | 9 kts | 6° |
| 2026-02-19 10:54 | 47.45666 | 8.56966 | 1424 ft | 10 kts | 283° |
| 2026-02-19 10:54 | 47.45667 | 8.56949 | 1424 ft | 0 kts | 275° |
| 2026-02-19 10:55 | 47.45678 | 8.56798 | 1421 ft | 47 kts | 276° |
| 2026-02-19 10:55 | 47.45739 | 8.55944 | 1411 ft | 117 kts | 276° |
| 2026-02-19 10:55 | 47.45849 | 8.54468 | 1469 ft | 162 kts | 277° |
| 2026-02-19 10:55 | 47.45975 | 8.52845 | 2228 ft | 158 kts | 276° |
| 2026-02-19 10:56 | 47.46089 | 8.51220 | 2917 ft | 162 kts | 274° |
| 2026-02-19 10:56 | 47.46073 | 8.47503 | 3429 ft | 203 kts | 240° |
| 2026-02-19 10:56 | 47.45054 | 8.46067 | 4125 ft | 207 kts | 213° |
| 2026-02-19 10:57 | 47.43943 | 8.44796 | 5041 ft | 199 kts | 237° |
| 2026-02-19 10:57 | 47.43429 | 8.42919 | 5844 ft | 199 kts | 258° |
| 2026-02-19 10:57 | 47.43143 | 8.40929 | 6653 ft | 198 kts | 255° |
| 2026-02-19 10:57 | 47.42808 | 8.38961 | 7344 ft | 202 kts | 252° |
| 2026-02-19 10:58 | 47.42037 | 8.37245 | 7985 ft | 210 kts | 217° |
| 2026-02-19 10:58 | 47.40599 | 8.36672 | 8629 ft | 227 kts | 179° |
| 2026-02-19 10:58 | 47.39124 | 8.37628 | 9274 ft | 246 kts | 140° |
| 2026-02-19 10:58 | 47.38282 | 8.39868 | 9874 ft | 260 kts | 101° |
| 2026-02-19 10:59 | 47.38482 | 8.42522 | 10440 ft | 267 kts | 63° |
| 2026-02-19 10:59 | 47.39562 | 8.44716 | 11072 ft | 268 kts | 42° |
| 2026-02-19 10:59 | 47.40962 | 8.46556 | 11740 ft | 270 kts | 38° |
| 2026-02-19 10:59 | 47.42444 | 8.48430 | 12019 ft | 292 kts | 38° |
| 2026-02-19 11:00 | 47.43964 | 8.50599 | 12212 ft | 316 kts | 47° |
| 2026-02-19 11:00 | 47.45863 | 8.56840 | 12537 ft | 361 kts | 86° |
| 2026-02-19 11:00 | 47.45904 | 8.60604 | 13039 ft | 369 kts | 91° |
| 2026-02-19 11:01 | 47.45972 | 8.64430 | 13694 ft | 374 kts | 89° |
| 2026-02-19 11:01 | 47.46104 | 8.68278 | 14327 ft | 377 kts | 88° |
| 2026-02-19 11:01 | 47.46270 | 8.72150 | 14886 ft | 379 kts | 87° |
| 2026-02-19 11:01 | 47.46446 | 8.76001 | 15494 ft | 382 kts | 87° |
| 2026-02-19 11:02 | 47.46617 | 8.79921 | 16281 ft | 382 kts | 89° |
| 2026-02-19 11:02 | 47.46486 | 8.83834 | 16999 ft | 381 kts | 100° |
| 2026-02-19 11:02 | 47.45956 | 8.87669 | 17656 ft | 382 kts | 103° |
| 2026-02-19 11:02 | 47.45383 | 8.91519 | 18240 ft | 384 kts | 103° |
| 2026-02-19 11:03 | 47.44816 | 8.95390 | 18813 ft | 386 kts | 103° |
| 2026-02-19 11:03 | 47.44259 | 8.99270 | 19366 ft | 387 kts | 103° |
| 2026-02-19 11:03 | 47.43704 | 9.03174 | 19929 ft | 389 kts | 103° |
| 2026-02-19 11:03 | 47.43147 | 9.07095 | 20491 ft | 391 kts | 104° |
| 2026-02-19 11:04 | 47.42583 | 9.11035 | 21053 ft | 393 kts | 104° |
| 2026-02-19 11:04 | 47.42199 | 9.19119 | 22094 ft | 402 kts | 86° |
| 2026-02-19 11:04 | 47.42782 | 9.23187 | 22569 ft | 409 kts | 75° |
| 2026-02-19 11:05 | 47.43909 | 9.27090 | 23020 ft | 417 kts | 64° |
| 2026-02-19 11:05 | 47.45365 | 9.30827 | 23429 ft | 421 kts | 63° |
| 2026-02-19 11:05 | 47.46930 | 9.34507 | 23821 ft | 426 kts | 56° |
| 2026-02-19 11:05 | 47.48902 | 9.37804 | 24228 ft | 432 kts | 46° |
| 2026-02-19 11:06 | 47.51274 | 9.40577 | 24604 ft | 437 kts | 35° |
| 2026-02-19 11:06 | 47.53935 | 9.42682 | 24965 ft | 442 kts | 24° |
| 2026-02-19 11:06 | 47.56859 | 9.44163 | 25322 ft | 446 kts | 16° |
| 2026-02-19 11:06 | 47.59912 | 9.45062 | 25678 ft | 450 kts | 7° |
| 2026-02-19 11:07 | 47.63039 | 9.45358 | 26013 ft | 452 kts | 2° |
| 2026-02-19 11:07 | 47.66203 | 9.45531 | 26328 ft | 456 kts | 2° |
| 2026-02-19 11:07 | 47.69383 | 9.45705 | 26661 ft | 458 kts | 2° |
| 2026-02-19 11:07 | 47.72583 | 9.45878 | 26990 ft | 460 kts | 2° |
| 2026-02-19 11:08 | 47.75790 | 9.46049 | 27319 ft | 463 kts | 2° |
| 2026-02-19 11:08 | 47.82263 | 9.46361 | 27953 ft | 467 kts | 2° |
| 2026-02-19 11:08 | 47.85518 | 9.46412 | 28264 ft | 469 kts | 0° |
| 2026-02-19 11:09 | 47.88788 | 9.46390 | 28564 ft | 471 kts | 359° |
| 2026-02-19 11:09 | 47.92074 | 9.46331 | 28850 ft | 473 kts | 359° |
| 2026-02-19 11:09 | 47.95370 | 9.46268 | 29137 ft | 475 kts | 359° |
| 2026-02-19 11:09 | 47.98684 | 9.46223 | 29425 ft | 477 kts | 360° |
| 2026-02-19 11:10 | 48.02013 | 9.46199 | 29696 ft | 479 kts | 0° |
| 2026-02-19 11:10 | 48.05353 | 9.46196 | 29926 ft | 481 kts | 0° |
| 2026-02-19 11:10 | 48.08706 | 9.46203 | 30145 ft | 482 kts | 360° |
| 2026-02-19 11:10 | 48.12068 | 9.46208 | 30366 ft | 483 kts | 360° |
| 2026-02-19 11:11 | 48.15433 | 9.46208 | 30606 ft | 483 kts | 360° |
| 2026-02-19 11:11 | 48.18794 | 9.46201 | 30921 ft | 482 kts | 359° |
| 2026-02-19 11:11 | 48.22140 | 9.46194 | 31242 ft | 480 kts | 359° |
| 2026-02-19 11:11 | 48.25477 | 9.46192 | 31554 ft | 479 kts | 359° |
| 2026-02-19 11:12 | 48.28805 | 9.46196 | 31850 ft | 478 kts | 360° |
| 2026-02-19 11:12 | 48.35413 | 9.46202 | 32410 ft | 477 kts | 359° |
| 2026-02-19 11:12 | 48.38725 | 9.46203 | 32720 ft | 476 kts | 359° |
| 2026-02-19 11:13 | 48.42030 | 9.46207 | 33038 ft | 474 kts | 359° |
| 2026-02-19 11:13 | 48.45334 | 9.46212 | 33347 ft | 472 kts | 359° |
| 2026-02-19 11:13 | 48.48620 | 9.46218 | 33657 ft | 471 kts | 359° |
| 2026-02-19 11:13 | 48.51887 | 9.46221 | 33911 ft | 470 kts | 359° |
| 2026-02-19 11:14 | 48.55153 | 9.46213 | 34142 ft | 469 kts | 358° |
| 2026-02-19 11:14 | 48.58410 | 9.46188 | 34368 ft | 468 kts | 358° |
| 2026-02-19 11:14 | 48.61667 | 9.46151 | 34592 ft | 467 kts | 358° |
| 2026-02-19 11:14 | 48.63816 | 9.46123 | 34735 ft | 467 kts | 358° |
| 2026-02-19 11:15 | 48.67061 | 9.46078 | 34950 ft | 466 kts | 358° |
| 2026-02-19 11:15 | 48.70303 | 9.46033 | 35157 ft | 466 kts | 358° |
| 2026-02-19 11:15 | 48.73539 | 9.46221 | 35352 ft | 466 kts | 5° |
| 2026-02-19 11:15 | 48.76752 | 9.46952 | 35539 ft | 467 kts | 7° |
| 2026-02-19 11:16 | 48.79968 | 9.47720 | 35718 ft | 466 kts | 7° |
| 2026-02-19 11:16 | 48.86373 | 9.49244 | 36087 ft | 465 kts | 7° |
| 2026-02-19 11:16 | 48.89568 | 9.50002 | 36263 ft | 465 kts | 7° |
| 2026-02-19 11:17 | 48.92768 | 9.50766 | 36451 ft | 465 kts | 7° |
| 2026-02-19 11:17 | 48.95966 | 9.51534 | 36624 ft | 464 kts | 6° |
| 2026-02-19 11:17 | 48.99151 | 9.52301 | 36669 ft | 464 kts | 6° |
| 2026-02-19 11:18 | 49.05521 | 9.53829 | 36677 ft | 463 kts | 6° |
| 2026-02-19 11:18 | 49.11895 | 9.55361 | 36693 ft | 463 kts | 6° |
| 2026-02-19 11:19 | 49.18253 | 9.56900 | 36688 ft | 462 kts | 6° |
| 2026-02-19 11:19 | 49.24575 | 9.58423 | 36655 ft | 462 kts | 6° |
| 2026-02-19 11:20 | 49.30921 | 9.59958 | 36663 ft | 462 kts | 6° |
| 2026-02-19 11:20 | 49.40457 | 9.62288 | 36683 ft | 462 kts | 7° |
| 2026-02-19 11:21 | 49.46768 | 9.63835 | 36682 ft | 461 kts | 7° |
| 2026-02-19 11:21 | 49.53142 | 9.65403 | 36685 ft | 461 kts | 7° |
| 2026-02-19 11:22 | 49.59449 | 9.66942 | 36701 ft | 460 kts | 7° |
| 2026-02-19 11:22 | 49.65780 | 9.68491 | 36703 ft | 460 kts | 7° |
| 2026-02-19 11:23 | 49.72098 | 9.70052 | 36705 ft | 460 kts | 7° |
| 2026-02-19 11:23 | 49.78386 | 9.71613 | 36711 ft | 459 kts | 7° |
| 2026-02-19 11:24 | 49.87858 | 9.73959 | 36715 ft | 459 kts | 7° |
| 2026-02-19 11:25 | 49.94178 | 9.75537 | 36719 ft | 459 kts | 7° |
| 2026-02-19 11:25 | 50.00481 | 9.77114 | 36714 ft | 459 kts | 7° |
| 2026-02-19 11:26 | 50.06783 | 9.78697 | 36734 ft | 458 kts | 7° |
| 2026-02-19 11:26 | 50.13080 | 9.80282 | 36749 ft | 458 kts | 7° |
| 2026-02-19 11:27 | 50.19388 | 9.81862 | 36764 ft | 458 kts | 7° |
| 2026-02-19 11:27 | 50.25686 | 9.83445 | 36772 ft | 458 kts | 6° |
| 2026-02-19 11:28 | 50.31976 | 9.85040 | 36774 ft | 458 kts | 7° |
| 2026-02-19 11:28 | 50.41235 | 9.88484 | 36767 ft | 462 kts | 23° |
| 2026-02-19 11:29 | 50.46727 | 9.93878 | 36776 ft | 464 kts | 34° |
| 2026-02-19 11:29 | 50.51920 | 9.99820 | 36768 ft | 465 kts | 34° |
| 2026-02-19 11:30 | 50.57161 | 10.05812 | 36765 ft | 466 kts | 34° |
| 2026-02-19 11:30 | 50.62403 | 10.11822 | 36777 ft | 466 kts | 34° |
| 2026-02-19 11:31 | 50.67647 | 10.17856 | 36775 ft | 467 kts | 34° |
| 2026-02-19 11:31 | 50.72883 | 10.23902 | 36787 ft | 466 kts | 34° |
| 2026-02-19 11:32 | 50.80736 | 10.32995 | 36789 ft | 466 kts | 34° |
| 2026-02-19 11:33 | 50.85964 | 10.39086 | 36783 ft | 466 kts | 34° |
| 2026-02-19 11:33 | 50.91189 | 10.45173 | 36808 ft | 466 kts | 33° |
| 2026-02-19 11:34 | 50.96452 | 10.51141 | 36819 ft | 465 kts | 33° |
| 2026-02-19 11:34 | 51.01735 | 10.57050 | 36819 ft | 464 kts | 33° |
| 2026-02-19 11:35 | 51.06999 | 10.62988 | 36822 ft | 464 kts | 33° |
| 2026-02-19 11:35 | 51.12244 | 10.68978 | 36837 ft | 463 kts | 33° |
| 2026-02-19 11:36 | 51.17460 | 10.74944 | 36842 ft | 461 kts | 33° |
| 2026-02-19 11:36 | 51.25254 | 10.83857 | 36841 ft | 459 kts | 33° |
| 2026-02-19 11:37 | 51.30432 | 10.89819 | 36866 ft | 459 kts | 34° |
| 2026-02-19 11:37 | 51.35575 | 10.95766 | 36861 ft | 458 kts | 34° |
| 2026-02-19 11:38 | 51.40741 | 11.01736 | 36871 ft | 458 kts | 33° |
| 2026-02-19 11:38 | 51.45906 | 11.07705 | 36869 ft | 457 kts | 34° |
| 2026-02-19 11:39 | 51.51055 | 11.13692 | 36875 ft | 457 kts | 33° |
| 2026-02-19 11:39 | 51.56203 | 11.19701 | 36878 ft | 458 kts | 33° |
| 2026-02-19 11:40 | 51.63895 | 11.28863 | 36870 ft | 459 kts | 37° |
| 2026-02-19 11:41 | 51.68750 | 11.35594 | 36878 ft | 461 kts | 40° |
| 2026-02-19 11:41 | 51.73509 | 11.42542 | 36911 ft | 462 kts | 39° |
| 2026-02-19 11:42 | 51.78308 | 11.49429 | 36912 ft | 461 kts | 38° |
| 2026-02-19 11:42 | 51.83139 | 11.56243 | 36909 ft | 461 kts | 38° |
| 2026-02-19 11:43 | 51.87976 | 11.63039 | 36905 ft | 460 kts | 38° |
| 2026-02-19 11:43 | 51.92812 | 11.69868 | 36908 ft | 460 kts | 38° |
| 2026-02-19 11:44 | 51.97618 | 11.76729 | 36925 ft | 460 kts | 38° |
| 2026-02-19 11:44 | 52.05363 | 11.85592 | 36952 ft | 455 kts | 29° |
| 2026-02-19 11:45 | 52.10688 | 11.91160 | 36947 ft | 455 kts | 30° |
| 2026-02-19 11:45 | 52.15998 | 11.96761 | 36969 ft | 455 kts | 29° |
| 2026-02-19 11:46 | 52.21310 | 12.02395 | 36966 ft | 455 kts | 29° |
| 2026-02-19 11:46 | 52.26610 | 12.08012 | 36970 ft | 454 kts | 29° |
| 2026-02-19 11:47 | 52.31910 | 12.13643 | 36967 ft | 454 kts | 30° |
| 2026-02-19 11:47 | 52.37203 | 12.19290 | 36972 ft | 454 kts | 30° |
| 2026-02-19 11:48 | 52.45128 | 12.27769 | 36989 ft | 453 kts | 29° |
| 2026-02-19 11:49 | 52.50406 | 12.33444 | 36977 ft | 453 kts | 29° |
| 2026-02-19 11:49 | 52.55669 | 12.39137 | 36973 ft | 453 kts | 29° |
| 2026-02-19 11:50 | 52.60937 | 12.44827 | 37015 ft | 453 kts | 29° |
| 2026-02-19 11:50 | 52.66207 | 12.50522 | 37006 ft | 452 kts | 29° |
| 2026-02-19 11:51 | 52.71471 | 12.56234 | 37003 ft | 452 kts | 29° |
| 2026-02-19 11:51 | 52.76679 | 12.61920 | 37000 ft | 452 kts | 29° |
| 2026-02-19 11:52 | 52.81919 | 12.67656 | 36999 ft | 451 kts | 29° |
| 2026-02-19 11:52 | 52.89775 | 12.76276 | 37003 ft | 452 kts | 29° |
| 2026-02-19 11:53 | 52.95009 | 12.82042 | 37002 ft | 452 kts | 29° |
| 2026-02-19 11:53 | 53.00346 | 12.87526 | 37002 ft | 450 kts | 25° |
| 2026-02-19 11:54 | 53.05827 | 12.92530 | 37045 ft | 449 kts | 23° |
| 2026-02-19 11:55 | 53.14028 | 13.00039 | 37041 ft | 448 kts | 24° |
| 2026-02-19 11:55 | 53.19445 | 13.05175 | 37037 ft | 447 kts | 24° |
| 2026-02-19 11:56 | 53.24847 | 13.10346 | 37040 ft | 447 kts | 24° |
| 2026-02-19 11:56 | 53.32903 | 13.18036 | 37048 ft | 446 kts | 24° |
| 2026-02-19 11:57 | 53.38295 | 13.23181 | 37042 ft | 445 kts | 24° |
| 2026-02-19 11:57 | 53.43676 | 13.28334 | 37045 ft | 445 kts | 24° |
| 2026-02-19 11:58 | 53.48147 | 13.32644 | 37040 ft | 445 kts | 24° |
| 2026-02-19 11:58 | 53.53512 | 13.37827 | 37044 ft | 443 kts | 24° |
| 2026-02-19 11:59 | 53.58851 | 13.42989 | 37042 ft | 442 kts | 24° |
| 2026-02-19 11:59 | 53.64184 | 13.48166 | 37041 ft | 442 kts | 24° |
| 2026-02-19 12:00 | 53.72182 | 13.55950 | 37041 ft | 442 kts | 24° |
| 2026-02-19 12:01 | 53.77512 | 13.61151 | 37067 ft | 442 kts | 24° |
| 2026-02-19 12:01 | 53.82829 | 13.66366 | 37057 ft | 441 kts | 24° |
| 2026-02-19 12:02 | 53.88135 | 13.71589 | 37056 ft | 441 kts | 24° |
| 2026-02-19 12:02 | 53.93408 | 13.76785 | 37052 ft | 441 kts | 24° |
| 2026-02-19 12:03 | 53.98719 | 13.82035 | 37035 ft | 442 kts | 24° |
| 2026-02-19 12:03 | 54.04030 | 13.87313 | 37023 ft | 442 kts | 24° |
| 2026-02-19 12:04 | 54.09347 | 13.92618 | 37022 ft | 443 kts | 24° |
| 2026-02-19 12:04 | 54.17343 | 14.00589 | 37028 ft | 444 kts | 24° |
| 2026-02-19 12:05 | 54.22673 | 14.05924 | 37057 ft | 444 kts | 24° |
| 2026-02-19 12:05 | 54.28001 | 14.11294 | 37049 ft | 444 kts | 24° |
| 2026-02-19 12:06 | 54.33341 | 14.16680 | 37047 ft | 444 kts | 24° |
| 2026-02-19 12:06 | 54.38671 | 14.22074 | 37044 ft | 444 kts | 24° |
| 2026-02-19 12:07 | 54.43955 | 14.27449 | 37076 ft | 444 kts | 24° |
| 2026-02-19 12:07 | 54.48885 | 14.34035 | 37062 ft | 454 kts | 37° |
| 2026-02-19 12:08 | 54.55791 | 14.45225 | 37050 ft | 454 kts | 37° |
| 2026-02-19 12:09 | 54.60388 | 14.52702 | 37050 ft | 454 kts | 37° |
| 2026-02-19 12:09 | 54.64985 | 14.60196 | 37094 ft | 454 kts | 37° |
| 2026-02-19 12:10 | 54.69573 | 14.67699 | 37068 ft | 454 kts | 37° |
| 2026-02-19 12:10 | 54.74156 | 14.75215 | 37086 ft | 454 kts | 37° |
| 2026-02-19 12:11 | 54.78738 | 14.82768 | 37057 ft | 455 kts | 37° |
| 2026-02-19 12:11 | 54.83612 | 14.89567 | 37045 ft | 447 kts | 28° |
| 2026-02-19 12:12 | 54.88697 | 14.95840 | 37068 ft | 448 kts | 28° |
| 2026-02-19 12:12 | 54.96291 | 15.05255 | 37045 ft | 448 kts | 28° |
| 2026-02-19 12:13 | 55.01371 | 15.11595 | 37041 ft | 449 kts | 29° |
| 2026-02-19 12:13 | 55.06436 | 15.17956 | 37045 ft | 449 kts | 29° |
| 2026-02-19 12:14 | 55.11508 | 15.24336 | 37048 ft | 449 kts | 29° |
| 2026-02-19 12:14 | 55.16582 | 15.30721 | 37044 ft | 449 kts | 29° |
| 2026-02-19 12:15 | 55.21647 | 15.37111 | 37038 ft | 449 kts | 29° |
| 2026-02-19 12:15 | 55.26709 | 15.43526 | 37044 ft | 449 kts | 29° |
| 2026-02-19 12:16 | 55.34292 | 15.53196 | 37081 ft | 449 kts | 29° |
| 2026-02-19 12:17 | 55.39311 | 15.59616 | 37073 ft | 449 kts | 29° |
| 2026-02-19 12:17 | 55.44369 | 15.66102 | 37067 ft | 449 kts | 29° |
| 2026-02-19 12:18 | 55.49413 | 15.72598 | 37059 ft | 449 kts | 29° |
| 2026-02-19 12:18 | 55.54456 | 15.79114 | 37072 ft | 449 kts | 29° |
| 2026-02-19 12:19 | 55.59493 | 15.85638 | 37082 ft | 448 kts | 30° |
| 2026-02-19 12:19 | 55.64502 | 15.92143 | 37075 ft | 446 kts | 30° |
| 2026-02-19 12:20 | 55.69502 | 15.98656 | 37071 ft | 445 kts | 30° |
| 2026-02-19 12:20 | 55.76976 | 16.08435 | 37062 ft | 445 kts | 30° |
| 2026-02-19 12:21 | 55.81954 | 16.14980 | 37084 ft | 443 kts | 31° |
| 2026-02-19 12:21 | 55.86903 | 16.21499 | 37076 ft | 442 kts | 31° |
| 2026-02-19 12:22 | 55.91796 | 16.27978 | 37069 ft | 441 kts | 31° |
| 2026-02-19 12:22 | 55.96712 | 16.34515 | 37065 ft | 440 kts | 31° |
| 2026-02-19 12:23 | 56.01621 | 16.41038 | 37095 ft | 439 kts | 31° |
| 2026-02-19 12:23 | 56.06514 | 16.47564 | 37061 ft | 438 kts | 31° |
| 2026-02-19 12:24 | 56.13836 | 16.57386 | 37058 ft | 438 kts | 31° |
| 2026-02-19 12:25 | 56.18716 | 16.63955 | 37049 ft | 438 kts | 31° |
| 2026-02-19 12:25 | 56.23595 | 16.70541 | 37049 ft | 438 kts | 31° |
| 2026-02-19 12:26 | 56.28465 | 16.77138 | 37067 ft | 439 kts | 32° |
| 2026-02-19 12:26 | 56.33336 | 16.83771 | 37050 ft | 439 kts | 32° |
| 2026-02-19 12:27 | 56.38201 | 16.90433 | 37044 ft | 439 kts | 32° |
| 2026-02-19 12:27 | 56.43075 | 16.97091 | 37043 ft | 439 kts | 32° |
| 2026-02-19 12:28 | 56.47947 | 17.03771 | 37063 ft | 440 kts | 32° |
| 2026-02-19 12:28 | 56.55229 | 17.13809 | 37047 ft | 440 kts | 32° |
| 2026-02-19 12:29 | 56.60101 | 17.20560 | 37037 ft | 441 kts | 32° |
| 2026-02-19 12:29 | 56.64972 | 17.27330 | 37032 ft | 441 kts | 32° |
| 2026-02-19 12:30 | 56.69839 | 17.34126 | 37034 ft | 441 kts | 32° |
| 2026-02-19 12:30 | 56.74710 | 17.40942 | 37048 ft | 442 kts | 32° |
| 2026-02-19 12:31 | 56.79583 | 17.47775 | 37047 ft | 442 kts | 32° |
| 2026-02-19 12:31 | 56.84455 | 17.54626 | 37032 ft | 442 kts | 32° |
| 2026-02-19 12:32 | 56.91769 | 17.64964 | 37035 ft | 443 kts | 33° |
| 2026-02-19 12:33 | 56.96633 | 17.71877 | 37048 ft | 443 kts | 33° |
| 2026-02-19 12:33 | 57.01506 | 17.78816 | 37039 ft | 443 kts | 33° |
| 2026-02-19 12:34 | 57.06378 | 17.85779 | 37037 ft | 444 kts | 33° |
| 2026-02-19 12:34 | 57.11256 | 17.92769 | 37033 ft | 444 kts | 33° |
| 2026-02-19 12:35 | 57.16088 | 17.99736 | 37033 ft | 444 kts | 33° |
| 2026-02-19 12:35 | 57.20950 | 18.06760 | 37061 ft | 444 kts | 34° |
| 2026-02-19 12:36 | 57.25814 | 18.13808 | 37032 ft | 445 kts | 34° |
| 2026-02-19 12:36 | 57.33117 | 18.24438 | 37017 ft | 446 kts | 34° |
| 2026-02-19 12:37 | 57.37986 | 18.31561 | 37017 ft | 446 kts | 34° |
| 2026-02-19 12:37 | 57.42854 | 18.38703 | 37022 ft | 446 kts | 34° |
| 2026-02-19 12:38 | 57.47716 | 18.45863 | 37015 ft | 446 kts | 34° |
| 2026-02-19 12:38 | 57.52576 | 18.53043 | 37021 ft | 446 kts | 34° |
| 2026-02-19 12:39 | 57.57427 | 18.60246 | 37018 ft | 446 kts | 34° |
| 2026-02-19 12:39 | 57.62279 | 18.67471 | 37003 ft | 446 kts | 34° |
| 2026-02-19 12:40 | 57.68732 | 18.77120 | 37028 ft | 446 kts | 35° |
| 2026-02-19 12:41 | 57.73583 | 18.84389 | 37016 ft | 446 kts | 35° |
| 2026-02-19 12:41 | 57.78432 | 18.91653 | 37012 ft | 446 kts | 35° |
| 2026-02-19 12:42 | 57.83270 | 18.98960 | 37014 ft | 446 kts | 35° |
| 2026-02-19 12:42 | 57.88097 | 19.06290 | 37018 ft | 446 kts | 35° |
| 2026-02-19 12:43 | 57.92933 | 19.13642 | 37012 ft | 446 kts | 36° |
| 2026-02-19 12:43 | 57.97726 | 19.20970 | 37008 ft | 446 kts | 36° |
| 2026-02-19 12:44 | 58.02543 | 19.28371 | 37002 ft | 446 kts | 36° |
| 2026-02-19 12:44 | 58.09766 | 19.39478 | 37011 ft | 447 kts | 36° |
| 2026-02-19 12:45 | 58.14586 | 19.46924 | 37017 ft | 448 kts | 36° |
| 2026-02-19 12:45 | 58.19407 | 19.54404 | 37009 ft | 448 kts | 36° |
| 2026-02-19 12:46 | 58.24223 | 19.61915 | 37001 ft | 448 kts | 37° |
| 2026-02-19 12:46 | 58.29037 | 19.69428 | 36991 ft | 448 kts | 37° |
| 2026-02-19 12:47 | 58.33841 | 19.76984 | 36990 ft | 448 kts | 37° |
| 2026-02-19 12:47 | 58.38648 | 19.84557 | 37003 ft | 448 kts | 37° |
| 2026-02-19 12:48 | 58.45865 | 19.95950 | 36997 ft | 449 kts | 37° |
| 2026-02-19 12:49 | 58.50664 | 20.03579 | 36998 ft | 449 kts | 37° |
| 2026-02-19 12:49 | 58.55431 | 20.11195 | 36998 ft | 449 kts | 37° |
| 2026-02-19 12:50 | 58.60227 | 20.18873 | 37016 ft | 449 kts | 37° |
| 2026-02-19 12:50 | 58.65027 | 20.26578 | 36999 ft | 449 kts | 37° |
| 2026-02-19 12:51 | 58.69806 | 20.34278 | 36995 ft | 448 kts | 37° |
| 2026-02-19 12:51 | 58.74574 | 20.42003 | 36992 ft | 448 kts | 37° |
| 2026-02-19 12:52 | 58.79353 | 20.49758 | 36997 ft | 448 kts | 38° |
| 2026-02-19 12:52 | 58.86500 | 20.61405 | 37008 ft | 448 kts | 38° |
| 2026-02-19 12:53 | 58.91230 | 20.69174 | 37003 ft | 448 kts | 38° |
| 2026-02-19 12:53 | 58.95978 | 20.77001 | 36984 ft | 448 kts | 38° |
| 2026-02-19 12:54 | 59.00731 | 20.84873 | 36979 ft | 449 kts | 38° |
| 2026-02-19 12:54 | 59.05210 | 20.93349 | 36969 ft | 452 kts | 50° |
| 2026-02-19 12:55 | 59.08621 | 21.03679 | 36624 ft | 454 kts | 57° |
| 2026-02-19 12:55 | 59.10267 | 21.08937 | 36362 ft | 454 kts | 57° |
| 2026-02-19 12:55 | 59.11884 | 21.14115 | 36113 ft | 453 kts | 57° |
| 2026-02-19 12:56 | 59.14270 | 21.21848 | 35742 ft | 453 kts | 57° |
| 2026-02-19 12:56 | 59.15901 | 21.27089 | 35492 ft | 452 kts | 57° |
| 2026-02-19 12:57 | 59.17537 | 21.32320 | 35240 ft | 452 kts | 57° |
| 2026-02-19 12:57 | 59.19174 | 21.37556 | 34991 ft | 451 kts | 57° |
| 2026-02-19 12:57 | 59.20803 | 21.42782 | 34731 ft | 451 kts | 57° |
| 2026-02-19 12:57 | 59.22433 | 21.48031 | 33855 ft | 454 kts | 57° |
| 2026-02-19 12:58 | 59.24072 | 21.53329 | 32955 ft | 454 kts | 57° |
| 2026-02-19 12:58 | 59.25686 | 21.58568 | 32481 ft | 446 kts | 58° |
| 2026-02-19 12:58 | 59.27270 | 21.63732 | 31896 ft | 440 kts | 57° |
| 2026-02-19 12:58 | 59.28834 | 21.68845 | 31333 ft | 435 kts | 57° |
| 2026-02-19 12:59 | 59.30373 | 21.73888 | 30786 ft | 430 kts | 58° |
| 2026-02-19 12:59 | 59.31895 | 21.78892 | 30240 ft | 425 kts | 58° |
| 2026-02-19 12:59 | 59.33399 | 21.83848 | 29652 ft | 421 kts | 58° |
| 2026-02-19 12:59 | 59.34888 | 21.88744 | 29113 ft | 415 kts | 58° |
| 2026-02-19 13:00 | 59.36354 | 21.93567 | 28591 ft | 409 kts | 58° |
| 2026-02-19 13:00 | 59.39220 | 22.03023 | 27572 ft | 398 kts | 57° |
| 2026-02-19 13:00 | 59.40616 | 22.07664 | 27079 ft | 392 kts | 58° |
| 2026-02-19 13:01 | 59.41993 | 22.12252 | 26600 ft | 388 kts | 57° |
| 2026-02-19 13:01 | 59.43352 | 22.16786 | 26133 ft | 383 kts | 58° |
| 2026-02-19 13:01 | 59.44695 | 22.21267 | 25686 ft | 378 kts | 58° |
| 2026-02-19 13:01 | 59.46005 | 22.25639 | 25243 ft | 374 kts | 58° |
| 2026-02-19 13:02 | 59.47318 | 22.30024 | 24812 ft | 370 kts | 58° |
| 2026-02-19 13:02 | 59.48614 | 22.34362 | 24380 ft | 366 kts | 58° |
| 2026-02-19 13:02 | 59.49896 | 22.38664 | 23947 ft | 362 kts | 58° |
| 2026-02-19 13:02 | 59.51166 | 22.42938 | 23507 ft | 362 kts | 58° |
| 2026-02-19 13:03 | 59.52431 | 22.47212 | 23129 ft | 360 kts | 58° |
| 2026-02-19 13:03 | 59.53677 | 22.51433 | 22733 ft | 354 kts | 58° |
| 2026-02-19 13:03 | 59.54912 | 22.55613 | 22290 ft | 352 kts | 58° |
| 2026-02-19 13:03 | 59.56137 | 22.59769 | 21834 ft | 348 kts | 58° |
| 2026-02-19 13:04 | 59.57347 | 22.63880 | 21385 ft | 345 kts | 58° |
| 2026-02-19 13:04 | 59.59724 | 22.71984 | 20488 ft | 338 kts | 58° |
| 2026-02-19 13:04 | 59.60896 | 22.75994 | 20038 ft | 336 kts | 59° |
| 2026-02-19 13:05 | 59.62062 | 22.79997 | 19589 ft | 334 kts | 59° |
| 2026-02-19 13:05 | 59.63217 | 22.83965 | 19145 ft | 332 kts | 59° |
| 2026-02-19 13:05 | 59.64364 | 22.87911 | 18711 ft | 330 kts | 59° |
| 2026-02-19 13:05 | 59.65503 | 22.91836 | 18281 ft | 328 kts | 59° |
| 2026-02-19 13:06 | 59.66630 | 22.95729 | 17819 ft | 325 kts | 59° |
| 2026-02-19 13:06 | 59.67746 | 22.99579 | 17404 ft | 321 kts | 59° |
| 2026-02-19 13:06 | 59.68850 | 23.03394 | 16998 ft | 318 kts | 59° |
| 2026-02-19 13:06 | 59.69940 | 23.07162 | 16594 ft | 314 kts | 59° |
| 2026-02-19 13:07 | 59.71021 | 23.10906 | 16190 ft | 311 kts | 59° |
| 2026-02-19 13:07 | 59.72076 | 23.14571 | 15800 ft | 309 kts | 59° |
| 2026-02-19 13:07 | 59.73133 | 23.18250 | 15408 ft | 306 kts | 59° |
| 2026-02-19 13:07 | 59.74182 | 23.21910 | 15019 ft | 304 kts | 59° |
| 2026-02-19 13:08 | 59.75221 | 23.25539 | 14631 ft | 302 kts | 59° |
| 2026-02-19 13:08 | 59.77290 | 23.32791 | 13844 ft | 299 kts | 60° |
| 2026-02-19 13:08 | 59.78311 | 23.36373 | 13421 ft | 297 kts | 59° |
| 2026-02-19 13:09 | 59.79322 | 23.39919 | 13035 ft | 294 kts | 59° |
| 2026-02-19 13:09 | 59.80324 | 23.43432 | 12631 ft | 291 kts | 60° |
| 2026-02-19 13:09 | 59.81315 | 23.46919 | 12237 ft | 288 kts | 60° |
| 2026-02-19 13:09 | 59.82295 | 23.50381 | 11842 ft | 286 kts | 61° |
| 2026-02-19 13:10 | 59.83266 | 23.53819 | 11451 ft | 284 kts | 61° |
| 2026-02-19 13:10 | 59.84229 | 23.57232 | 11056 ft | 282 kts | 61° |
| 2026-02-19 13:10 | 59.85187 | 23.60622 | 10663 ft | 281 kts | 61° |
| 2026-02-19 13:10 | 59.86140 | 23.64001 | 10276 ft | 279 kts | 61° |
| 2026-02-19 13:11 | 59.87076 | 23.67328 | 10020 ft | 272 kts | 61° |
| 2026-02-19 13:11 | 59.87988 | 23.70586 | 9825 ft | 267 kts | 61° |
| 2026-02-19 13:11 | 59.88880 | 23.73777 | 9682 ft | 266 kts | 62° |
| 2026-02-19 13:11 | 59.89777 | 23.76989 | 9512 ft | 265 kts | 61° |
| 2026-02-19 13:12 | 59.90679 | 23.80173 | 9196 ft | 262 kts | 58° |
| 2026-02-19 13:12 | 59.93255 | 23.85225 | 8502 ft | 262 kts | 36° |
| 2026-02-19 13:12 | 59.94737 | 23.87315 | 8163 ft | 260 kts | 37° |
| 2026-02-19 13:13 | 59.96204 | 23.89394 | 7848 ft | 257 kts | 36° |
| 2026-02-19 13:13 | 59.97660 | 23.91469 | 7557 ft | 257 kts | 37° |
| 2026-02-19 13:13 | 59.99120 | 23.93525 | 7229 ft | 256 kts | 33° |
| 2026-02-19 13:13 | 60.00728 | 23.95024 | 6897 ft | 255 kts | 19° |
| 2026-02-19 13:14 | 60.02461 | 23.95788 | 6593 ft | 255 kts | 13° |
| 2026-02-19 13:14 | 60.04200 | 23.96474 | 6272 ft | 254 kts | 13° |
| 2026-02-19 13:14 | 60.05934 | 23.97168 | 5942 ft | 254 kts | 13° |
| 2026-02-19 13:14 | 60.07664 | 23.97868 | 5631 ft | 253 kts | 13° |
| 2026-02-19 13:15 | 60.09383 | 23.98580 | 5332 ft | 252 kts | 16° |
| 2026-02-19 13:15 | 60.10991 | 23.99871 | 5009 ft | 248 kts | 31° |
| 2026-02-19 13:15 | 60.12342 | 24.01989 | 4912 ft | 247 kts | 47° |
| 2026-02-19 13:15 | 60.13504 | 24.04526 | 4820 ft | 247 kts | 48° |
| 2026-02-19 13:16 | 60.14657 | 24.07039 | 4718 ft | 246 kts | 48° |
| 2026-02-19 13:16 | 60.16978 | 24.12079 | 4508 ft | 239 kts | 47° |
| 2026-02-19 13:16 | 60.18076 | 24.14467 | 4365 ft | 227 kts | 47° |
| 2026-02-19 13:17 | 60.19061 | 24.16840 | 4180 ft | 217 kts | 59° |
| 2026-02-19 13:17 | 60.19561 | 24.19651 | 4024 ft | 214 kts | 81° |
| 2026-02-19 13:17 | 60.19484 | 24.22641 | 3881 ft | 217 kts | 102° |
| 2026-02-19 13:17 | 60.18974 | 24.25498 | 3529 ft | 217 kts | 108° |
| 2026-02-19 13:18 | 60.18431 | 24.28335 | 3176 ft | 217 kts | 108° |
| 2026-02-19 13:18 | 60.17887 | 24.31162 | 2850 ft | 217 kts | 108° |
| 2026-02-19 13:18 | 60.17343 | 24.33992 | 2584 ft | 217 kts | 108° |
| 2026-02-19 13:18 | 60.16799 | 24.36822 | 2378 ft | 217 kts | 108° |
| 2026-02-19 13:19 | 60.16256 | 24.39651 | 2327 ft | 217 kts | 108° |
| 2026-02-19 13:19 | 60.15711 | 24.42479 | 2333 ft | 217 kts | 108° |
| 2026-02-19 13:19 | 60.15165 | 24.45311 | 2329 ft | 217 kts | 108° |
| 2026-02-19 13:19 | 60.14634 | 24.48156 | 2329 ft | 220 kts | 103° |
| 2026-02-19 13:20 | 60.14468 | 24.51101 | 2325 ft | 213 kts | 82° |
| 2026-02-19 13:20 | 60.15647 | 24.56311 | 2326 ft | 207 kts | 46° |
| 2026-02-19 13:20 | 60.16630 | 24.58433 | 2325 ft | 207 kts | 46° |
| 2026-02-19 13:21 | 60.17613 | 24.60555 | 2321 ft | 208 kts | 46° |
| 2026-02-19 13:21 | 60.18594 | 24.62681 | 2321 ft | 207 kts | 46° |
| 2026-02-19 13:21 | 60.19576 | 24.64810 | 2318 ft | 208 kts | 46° |
| 2026-02-19 13:21 | 60.20558 | 24.66941 | 2318 ft | 208 kts | 46° |
| 2026-02-19 13:22 | 60.21539 | 24.69073 | 2318 ft | 208 kts | 46° |
| 2026-02-19 13:22 | 60.22484 | 24.71129 | 2301 ft | 191 kts | 46° |
| 2026-02-19 13:22 | 60.23331 | 24.72976 | 2330 ft | 165 kts | 46° |
| 2026-02-19 13:22 | 60.24052 | 24.74546 | 2296 ft | 140 kts | 46° |
| 2026-02-19 13:23 | 60.24476 | 24.75472 | 2234 ft | 133 kts | 46° |
| 2026-02-19 13:23 | 60.25093 | 24.76817 | 2080 ft | 129 kts | 46° |
| 2026-02-19 13:23 | 60.25694 | 24.78126 | 1904 ft | 126 kts | 46° |
| 2026-02-19 13:23 | 60.26287 | 24.79423 | 1749 ft | 126 kts | 46° |
| 2026-02-19 13:24 | 60.26885 | 24.80733 | 1566 ft | 127 kts | 46° |
| 2026-02-19 13:24 | 60.28079 | 24.83356 | 1137 ft | 128 kts | 46° |
| 2026-02-19 13:25 | 60.29283 | 24.86006 | 762 ft | 129 kts | 46° |
| 2026-02-19 13:25 | 60.29895 | 24.87341 | 602 ft | 130 kts | 45° |
| 2026-02-19 13:25 | 60.30521 | 24.88702 | 422 ft | 133 kts | 44° |
| 2026-02-19 13:25 | 60.31138 | 24.90075 | 248 ft | 131 kts | 45° |
| 2026-02-19 13:26 | 60.31744 | 24.91388 | 163 ft | 117 kts | 46° |
| 2026-02-19 13:26 | 60.32191 | 24.92349 | 163 ft | 69 kts | 48° |
| 2026-02-19 13:26 | 60.32392 | 24.92837 | 160 ft | 33 kts | 62° |
| 2026-02-19 13:26 | 60.32455 | 24.93198 | 163 ft | 25 kts | 77° |
| 2026-02-19 13:27 | 60.32492 | 24.93532 | 162 ft | 22 kts | 78° |
| 2026-02-19 13:27 | 60.32526 | 24.93838 | 161 ft | 19 kts | 76° |
| 2026-02-19 13:27 | 60.32607 | 24.94070 | 161 ft | 22 kts | 47° |
| 2026-02-19 13:27 | 60.32714 | 24.94304 | 161 ft | 24 kts | 48° |
| 2026-02-19 13:28 | 60.32829 | 24.94561 | 161 ft | 25 kts | 47° |
| 2026-02-19 13:28 | 60.33065 | 24.95076 | 161 ft | 22 kts | 47° |
| 2026-02-19 13:28 | 60.33173 | 24.95316 | 161 ft | 21 kts | 49° |
| 2026-02-19 13:29 | 60.33189 | 24.95554 | 161 ft | 20 kts | 135° |
| 2026-02-19 13:29 | 60.33080 | 24.95751 | 161 ft | 22 kts | 139° |
| 2026-02-19 13:29 | 60.32962 | 24.95898 | 161 ft | 21 kts | 150° |
| 2026-02-19 13:29 | 60.32829 | 24.96053 | 161 ft | 23 kts | 150° |
| 2026-02-19 13:30 | 60.32679 | 24.96227 | 161 ft | 26 kts | 150° |
| 2026-02-19 13:30 | 60.32538 | 24.96391 | 161 ft | 23 kts | 150° |
| 2026-02-19 13:30 | 60.32395 | 24.96559 | 162 ft | 21 kts | 149° |
| 2026-02-19 13:30 | 60.32255 | 24.96723 | 161 ft | 21 kts | 150° |
| 2026-02-19 13:31 | 60.32117 | 24.96880 | 161 ft | 24 kts | 150° |
| 2026-02-19 13:31 | 60.31967 | 24.97049 | 161 ft | 24 kts | 153° |
| 2026-02-19 13:31 | 60.31821 | 24.97198 | 161 ft | 24 kts | 153° |
| 2026-02-19 13:31 | 60.31669 | 24.97355 | 161 ft | 21 kts | 153° |
| 2026-02-19 13:32 | 60.31584 | 24.97420 | 161 ft | 6 kts | 201° |
| 2026-02-19 13:32 | 60.31558 | 24.97327 | 161 ft | 1 kts | 244° |
| 2026-02-19 13:32 | 60.31557 | 24.97324 | 161 ft | 0 kts | 244° |